Terminal Aerodrome Forecast
Issued by NWS

Home | Current Version | Previous Version | Text Only | Print | Product List | Glossary On
Versions: 1 2 3 4 5 6 7 8 9 10 11 12 13 14 15 16
000
FTUS43 KIND 242300
TAFLAF
TAF
KLAF 242320Z 2500/2524 23004KT P6SM SCT035 BKN250
     FM250800 23004KT 5SM BR BKN020
     FM251300 27006KT P6SM SCT030 BKN250
     FM251600 28010KT P6SM SCT100
     FM252300 31005KT P6SM SCT100
      AMD LTD TO CLD VIS AND WIND 2501/2513=

USA.gov is the U.S. government's official web portal to all federal, state and local government web resources and services.